sensor_id;sensor_type;location;lat;lon;timestamp;P1;durP1;ratioP1;P2;durP2;ratioP2
21647;SDS011;10985;54.182;7.890;2022-09-27T09:14:34;3.83;;;1.85;;
21647;SDS011;10985;54.182;7.890;2022-09-27T09:17:19;4.25;;;1.88;;
21647;SDS011;10985;54.182;7.890;2022-09-27T09:20:17;5.43;;;1.70;;
21647;SDS011;10985;54.182;7.890;2022-09-27T09:33:56;9.20;;;2.45;;
21647;SDS011;10985;54.182;7.890;2022-09-27T09:36:31;15.57;;;3.08;;
21647;SDS011;10985;54.182;7.890;2022-09-27T09:39:05;7.55;;;2.08;;
21647;SDS011;10985;54.182;7.890;2022-09-27T09:41:38;10.15;;;2.60;;
21647;SDS011;10985;54.182;7.890;2022-09-27T09:46:52;6.30;;;1.73;;
21647;SDS011;10985;54.182;7.890;2022-09-27T09:49:28;11.25;;;2.15;;
21647;SDS011;10985;54.182;7.890;2022-09-27T09:51:58;6.70;;;1.90;;
21647;SDS011;10985;54.182;7.890;2022-09-27T09:54:30;5.45;;;1.65;;
21647;SDS011;10985;54.182;7.890;2022-09-27T09:57:03;6.28;;;1.98;;
21647;SDS011;10985;54.182;7.890;2022-09-27T09:59:50;4.05;;;1.75;;
21647;SDS011;10985;54.182;7.890;2022-09-27T10:02:24;4.93;;;1.80;;
21647;SDS011;10985;54.182;7.890;2022-09-27T10:04:51;9.10;;;1.67;;
21647;SDS011;10985;54.182;7.890;2022-09-27T10:07:19;8.00;;;2.00;;
21647;SDS011;10985;54.182;7.890;2022-09-27T10:09:47;9.95;;;2.15;;
21647;SDS011;10985;54.182;7.890;2022-09-27T10:12:13;6.63;;;2.25;;
21647;SDS011;10985;54.182;7.890;2022-09-27T10:14:39;14.15;;;3.00;;
21647;SDS011;10985;54.182;7.890;2022-09-27T10:17:09;9.02;;;2.55;;
21647;SDS011;10985;54.182;7.890;2022-09-27T10:19:38;12.68;;;2.10;;
21647;SDS011;10985;54.182;7.890;2022-09-27T10:22:10;12.50;;;2.33;;
21647;SDS011;10985;54.182;7.890;2022-09-27T10:27:21;6.43;;;1.33;;
21647;SDS011;10985;54.182;7.890;2022-09-27T10:29:54;5.90;;;1.65;;
21647;SDS011;10985;54.182;7.890;2022-09-27T10:32:25;3.78;;;1.20;;
21647;SDS011;10985;54.182;7.890;2022-09-27T10:35:17;8.70;;;1.90;;
21647;SDS011;10985;54.182;7.890;2022-09-27T10:37:46;5.63;;;1.60;;
21647;SDS011;10985;54.182;7.890;2022-09-27T10:40:18;8.75;;;2.47;;
21647;SDS011;10985;54.182;7.890;2022-09-27T10:42:51;10.43;;;1.80;;
21647;SDS011;10985;54.182;7.890;2022-09-27T10:45:19;6.75;;;1.70;;
21647;SDS011;10985;54.182;7.890;2022-09-27T10:47:48;5.53;;;1.67;;
21647;SDS011;10985;54.182;7.890;2022-09-27T10:50:15;9.52;;;1.42;;
21647;SDS011;10985;54.182;7.890;2022-09-27T10:52:45;7.43;;;1.60;;
21647;SDS011;10985;54.182;7.890;2022-09-27T10:55:20;15.38;;;2.72;;
21647;SDS011;10985;54.182;7.890;2022-09-27T10:57:51;11.32;;;2.10;;
21647;SDS011;10985;54.182;7.890;2022-09-27T11:00:23;14.60;;;2.63;;
21647;SDS011;10985;54.182;7.890;2022-09-27T11:02:52;5.38;;;1.73;;
21647;SDS011;10985;54.182;7.890;2022-09-27T11:10:20;6.07;;;1.70;;
21647;SDS011;10985;54.182;7.890;2022-09-27T11:18:41;7.50;;;3.65;;
21647;SDS011;10985;54.182;7.890;2022-09-27T11:27:11;8.50;;;1.60;;
21647;SDS011;10985;54.182;7.890;2022-09-27T11:29:55;5.32;;;1.73;;
21647;SDS011;10985;54.182;7.890;2022-09-27T11:44:07;7.70;;;1.45;;
21647;SDS011;10985;54.182;7.890;2022-09-27T11:46:44;7.72;;;1.67;;
21647;SDS011;10985;54.182;7.890;2022-09-27T11:49:25;4.82;;;1.20;;
21647;SDS011;10985;54.182;7.890;2022-09-27T12:01:03;7.82;;;1.40;;
21647;SDS011;10985;54.182;7.890;2022-09-27T12:03:51;7.05;;;1.42;;
21647;SDS011;10985;54.182;7.890;2022-09-27T12:06:58;6.32;;;1.48;;
21647;SDS011;10985;54.182;7.890;2022-09-27T12:09:39;4.55;;;1.00;;
21647;SDS011;10985;54.182;7.890;2022-09-27T12:12:12;5.85;;;1.30;;
21647;SDS011;10985;54.182;7.890;2022-09-27T12:14:44;3.10;;;1.42;;
21647;SDS011;10985;54.182;7.890;2022-09-27T12:17:23;9.98;;;1.23;;
21647;SDS011;10985;54.182;7.890;2022-09-27T12:19:57;5.75;;;1.23;;
21647;SDS011;10985;54.182;7.890;2022-09-27T12:22:29;3.83;;;1.33;;
21647;SDS011;10985;54.182;7.890;2022-09-27T12:24:59;3.13;;;0.90;;
21647;SDS011;10985;54.182;7.890;2022-09-27T12:27:35;1.45;;;0.70;;
21647;SDS011;10985;54.182;7.890;2022-09-27T12:30:10;4.95;;;0.93;;
21647;SDS011;10985;54.182;7.890;2022-09-27T12:32:43;6.43;;;1.10;;
21647;SDS011;10985;54.182;7.890;2022-09-27T12:35:33;6.30;;;1.05;;
21647;SDS011;10985;54.182;7.890;2022-09-27T12:38:05;4.45;;;0.82;;
21647;SDS011;10985;54.182;7.890;2022-09-27T12:40:40;4.28;;;0.80;;
21647;SDS011;10985;54.182;7.890;2022-09-27T12:43:23;1.55;;;0.82;;
21647;SDS011;10985;54.182;7.890;2022-09-27T12:51:14;2.08;;;0.82;;
21647;SDS011;10985;54.182;7.890;2022-09-27T12:53:47;2.28;;;0.80;;
21647;SDS011;10985;54.182;7.890;2022-09-27T12:56:29;2.90;;;0.70;;
21647;SDS011;10985;54.182;7.890;2022-09-27T13:02:15;5.90;;;1.10;;
21647;SDS011;10985;54.182;7.890;2022-09-27T13:11:06;2.10;;;0.70;;
21647;SDS011;10985;54.182;7.890;2022-09-27T13:13:57;5.05;;;0.80;;
21647;SDS011;10985;54.182;7.890;2022-09-27T13:16:25;4.40;;;0.73;;
21647;SDS011;10985;54.182;7.890;2022-09-27T13:18:53;3.00;;;1.00;;
21647;SDS011;10985;54.182;7.890;2022-09-27T13:29:47;3.97;;;0.90;;
21647;SDS011;10985;54.182;7.890;2022-09-27T13:32:14;5.20;;;0.82;;
21647;SDS011;10985;54.182;7.890;2022-09-27T13:34:52;4.68;;;1.20;;
21647;SDS011;10985;54.182;7.890;2022-09-27T13:42:45;1.50;;;0.70;;
21647;SDS011;10985;54.182;7.890;2022-09-27T13:48:26;2.03;;;0.70;;
21647;SDS011;10985;54.182;7.890;2022-09-27T13:50:57;4.10;;;0.90;;
21647;SDS011;10985;54.182;7.890;2022-09-27T13:53:28;2.17;;;0.70;;
21647;SDS011;10985;54.182;7.890;2022-09-27T13:55:59;2.20;;;0.82;;
21647;SDS011;10985;54.182;7.890;2022-09-27T14:01:18;2.17;;;0.90;;
21647;SDS011;10985;54.182;7.890;2022-09-27T14:03:52;1.00;;;0.60;;
21647;SDS011;10985;54.182;7.890;2022-09-27T14:06:23;3.70;;;0.95;;
21647;SDS011;10985;54.182;7.890;2022-09-27T14:08:57;2.20;;;0.93;;
21647;SDS011;10985;54.182;7.890;2022-09-27T14:11:33;5.13;;;1.00;;
21647;SDS011;10985;54.182;7.890;2022-09-27T14:14:03;2.97;;;0.90;;
21647;SDS011;10985;54.182;7.890;2022-09-27T14:16:32;5.32;;;1.10;;
21647;SDS011;10985;54.182;7.890;2022-09-27T14:19:00;3.10;;;0.93;;
21647;SDS011;10985;54.182;7.890;2022-09-27T14:21:28;5.05;;;1.45;;
21647;SDS011;10985;54.182;7.890;2022-09-27T14:26:46;5.20;;;0.70;;
21647;SDS011;10985;54.182;7.890;2022-09-27T14:29:17;1.08;;;0.60;;
21647;SDS011;10985;54.182;7.890;2022-09-27T14:31:45;1.77;;;0.80;;
21647;SDS011;10985;54.182;7.890;2022-09-27T14:34:13;3.05;;;0.90;;
21647;SDS011;10985;54.182;7.890;2022-09-27T14:36:39;2.35;;;1.05;;
21647;SDS011;10985;54.182;7.890;2022-09-27T14:39:33;1.38;;;0.70;;
21647;SDS011;10985;54.182;7.890;2022-09-27T14:42:02;4.90;;;1.23;;
21647;SDS011;10985;54.182;7.890;2022-09-27T14:44:30;4.75;;;1.23;;
21647;SDS011;10985;54.182;7.890;2022-09-27T14:49:59;1.58;;;0.88;;
21647;SDS011;10985;54.182;7.890;2022-09-27T14:52:40;6.57;;;1.60;;
21647;SDS011;10985;54.182;7.890;2022-09-27T14:57:33;2.38;;;1.08;;
21647;SDS011;10985;54.182;7.890;2022-09-27T15:00:09;2.35;;;0.90;;
21647;SDS011;10985;54.182;7.890;2022-09-27T15:02:47;4.20;;;1.02;;
21647;SDS011;10985;54.182;7.890;2022-09-27T15:05:24;6.70;;;1.30;;
21647;SDS011;10985;54.182;7.890;2022-09-27T15:07:51;2.08;;;1.23;;
21647;SDS011;10985;54.182;7.890;2022-09-27T15:10:20;3.60;;;1.05;;
21647;SDS011;10985;54.182;7.890;2022-09-27T15:12:48;3.28;;;1.45;;
21647;SDS011;10985;54.182;7.890;2022-09-27T15:15:20;4.63;;;1.13;;
21647;SDS011;10985;54.182;7.890;2022-09-27T15:17:47;4.85;;;1.73;;
21647;SDS011;10985;54.182;7.890;2022-09-27T15:20:20;5.13;;;1.77;;
21647;SDS011;10985;54.182;7.890;2022-09-27T15:22:55;4.30;;;1.85;;
21647;SDS011;10985;54.182;7.890;2022-09-27T15:25:29;2.17;;;1.33;;
21647;SDS011;10985;54.182;7.890;2022-09-27T15:30:40;3.85;;;1.48;;
21647;SDS011;10985;54.182;7.890;2022-09-27T15:33:28;6.25;;;2.08;;
21647;SDS011;10985;54.182;7.890;2022-09-27T15:35:56;4.00;;;2.00;;
21647;SDS011;10985;54.182;7.890;2022-09-27T15:38:28;7.38;;;2.22;;
21647;SDS011;10985;54.182;7.890;2022-09-27T15:43:29;4.53;;;1.60;;
21647;SDS011;10985;54.182;7.890;2022-09-27T15:45:55;3.92;;;1.40;;
21647;SDS011;10985;54.182;7.890;2022-09-27T15:48:26;9.48;;;1.67;;
21647;SDS011;10985;54.182;7.890;2022-09-27T15:50:52;6.47;;;1.40;;
21647;SDS011;10985;54.182;7.890;2022-09-27T15:56:02;4.40;;;1.48;;
21647;SDS011;10985;54.182;7.890;2022-09-27T15:58:30;4.55;;;1.63;;
21647;SDS011;10985;54.182;7.890;2022-09-27T16:00:58;4.93;;;2.20;;
21647;SDS011;10985;54.182;7.890;2022-09-27T16:03:29;4.80;;;1.58;;
21647;SDS011;10985;54.182;7.890;2022-09-27T16:05:55;3.78;;;1.67;;
21647;SDS011;10985;54.182;7.890;2022-09-27T16:08:22;2.92;;;1.35;;
21647;SDS011;10985;54.182;7.890;2022-09-27T16:10:49;3.78;;;2.53;;
21647;SDS011;10985;54.182;7.890;2022-09-27T16:13:16;4.15;;;1.27;;
21647;SDS011;10985;54.182;7.890;2022-09-27T16:15:42;3.35;;;2.53;;
21647;SDS011;10985;54.182;7.890;2022-09-27T16:18:09;2.70;;;1.70;;
21647;SDS011;10985;54.182;7.890;2022-09-27T16:20:35;2.70;;;1.67;;
21647;SDS011;10985;54.182;7.890;2022-09-27T16:23:00;2.17;;;1.63;;
21647;SDS011;10985;54.182;7.890;2022-09-27T16:25:26;2.40;;;1.60;;
21647;SDS011;10985;54.182;7.890;2022-09-27T16:27:52;1.98;;;1.67;;
21647;SDS011;10985;54.182;7.890;2022-09-27T16:30:21;5.13;;;1.60;;
21647;SDS011;10985;54.182;7.890;2022-09-27T16:32:47;2.20;;;1.52;;
21647;SDS011;10985;54.182;7.890;2022-09-27T16:35:13;5.65;;;1.70;;
21647;SDS011;10985;54.182;7.890;2022-09-27T16:37:40;3.35;;;1.40;;
21647;SDS011;10985;54.182;7.890;2022-09-27T16:40:06;5.05;;;2.40;;
21647;SDS011;10985;54.182;7.890;2022-09-27T16:42:34;5.60;;;1.98;;
21647;SDS011;10985;54.182;7.890;2022-09-27T16:45:00;4.82;;;2.38;;
21647;SDS011;10985;54.182;7.890;2022-09-27T16:47:29;2.33;;;1.83;;
21647;SDS011;10985;54.182;7.890;2022-09-27T16:49:54;3.25;;;1.85;;
21647;SDS011;10985;54.182;7.890;2022-09-27T16:52:39;3.17;;;1.80;;
21647;SDS011;10985;54.182;7.890;2022-09-27T16:55:06;4.57;;;2.30;;
21647;SDS011;10985;54.182;7.890;2022-09-27T16:57:32;5.07;;;1.95;;
21647;SDS011;10985;54.182;7.890;2022-09-27T16:59:59;5.57;;;1.90;;
21647;SDS011;10985;54.182;7.890;2022-09-27T17:02:25;6.55;;;1.77;;
21647;SDS011;10985;54.182;7.890;2022-09-27T17:04:50;4.63;;;1.80;;
21647;SDS011;10985;54.182;7.890;2022-09-27T17:07:17;6.45;;;2.03;;
21647;SDS011;10985;54.182;7.890;2022-09-27T17:09:43;4.50;;;1.83;;
21647;SDS011;10985;54.182;7.890;2022-09-27T17:12:09;6.57;;;2.05;;
21647;SDS011;10985;54.182;7.890;2022-09-27T17:14:35;5.05;;;2.00;;
21647;SDS011;10985;54.182;7.890;2022-09-27T17:17:00;4.85;;;2.08;;
21647;SDS011;10985;54.182;7.890;2022-09-27T17:19:26;3.58;;;1.85;;
21647;SDS011;10985;54.182;7.890;2022-09-27T17:21:52;1.55;;;1.45;;
21647;SDS011;10985;54.182;7.890;2022-09-27T17:24:19;5.13;;;2.17;;
21647;SDS011;10985;54.182;7.890;2022-09-27T17:26:45;4.13;;;1.55;;
21647;SDS011;10985;54.182;7.890;2022-09-27T17:29:11;2.67;;;2.40;;
21647;SDS011;10985;54.182;7.890;2022-09-27T17:31:37;4.13;;;1.83;;
21647;SDS011;10985;54.182;7.890;2022-09-27T17:34:04;5.43;;;2.30;;
21647;SDS011;10985;54.182;7.890;2022-09-27T17:36:31;3.70;;;2.50;;
21647;SDS011;10985;54.182;7.890;2022-09-27T17:38:59;3.28;;;2.97;;
21647;SDS011;10985;54.182;7.890;2022-09-27T17:41:25;1.60;;;1.50;;
21647;SDS011;10985;54.182;7.890;2022-09-27T17:43:53;3.47;;;1.77;;
21647;SDS011;10985;54.182;7.890;2022-09-27T17:46:27;1.90;;;1.60;;
21647;SDS011;10985;54.182;7.890;2022-09-27T17:49:00;3.50;;;2.63;;
21647;SDS011;10985;54.182;7.890;2022-09-27T17:51:45;4.97;;;2.58;;
21647;SDS011;10985;54.182;7.890;2022-09-27T17:54:12;4.03;;;2.03;;
21647;SDS011;10985;54.182;7.890;2022-09-27T17:56:38;5.47;;;4.15;;
21647;SDS011;10985;54.182;7.890;2022-09-27T17:59:06;2.08;;;1.95;;
21647;SDS011;10985;54.182;7.890;2022-09-27T18:01:33;2.00;;;1.60;;
21647;SDS011;10985;54.182;7.890;2022-09-27T18:04:02;1.70;;;1.58;;
21647;SDS011;10985;54.182;7.890;2022-09-27T18:06:28;3.17;;;2.88;;
21647;SDS011;10985;54.182;7.890;2022-09-27T18:08:54;3.60;;;2.22;;
21647;SDS011;10985;54.182;7.890;2022-09-27T18:11:21;2.95;;;2.40;;
21647;SDS011;10985;54.182;7.890;2022-09-27T18:13:52;3.90;;;1.67;;
21647;SDS011;10985;54.182;7.890;2022-09-27T18:16:24;4.10;;;1.92;;
21647;SDS011;10985;54.182;7.890;2022-09-27T18:18:53;2.13;;;1.88;;
21647;SDS011;10985;54.182;7.890;2022-09-27T18:21:20;8.40;;;5.00;;
21647;SDS011;10985;54.182;7.890;2022-09-27T18:23:47;7.65;;;3.65;;
21647;SDS011;10985;54.182;7.890;2022-09-27T18:26:17;5.57;;;3.50;;
21647;SDS011;10985;54.182;7.890;2022-09-27T18:28:43;3.97;;;3.67;;
21647;SDS011;10985;54.182;7.890;2022-09-27T18:31:11;4.75;;;3.70;;
21647;SDS011;10985;54.182;7.890;2022-09-27T18:33:38;5.13;;;4.57;;
21647;SDS011;10985;54.182;7.890;2022-09-27T18:38:31;6.75;;;4.82;;
21647;SDS011;10985;54.182;7.890;2022-09-27T18:41:03;7.40;;;6.10;;
21647;SDS011;10985;54.182;7.890;2022-09-27T18:43:33;3.78;;;2.95;;
21647;SDS011;10985;54.182;7.890;2022-09-27T18:45:59;4.00;;;2.65;;
21647;SDS011;10985;54.182;7.890;2022-09-27T18:48:25;4.10;;;2.50;;
21647;SDS011;10985;54.182;7.890;2022-09-27T18:50:51;2.60;;;1.52;;
21647;SDS011;10985;54.182;7.890;2022-09-27T18:53:16;4.13;;;1.88;;
21647;SDS011;10985;54.182;7.890;2022-09-27T18:55:42;2.38;;;1.90;;
21647;SDS011;10985;54.182;7.890;2022-09-27T18:58:07;3.33;;;1.95;;
21647;SDS011;10985;54.182;7.890;2022-09-27T19:00:38;3.10;;;1.70;;
21647;SDS011;10985;54.182;7.890;2022-09-27T19:03:04;6.28;;;1.55;;
21647;SDS011;10985;54.182;7.890;2022-09-27T19:05:29;4.32;;;1.50;;
21647;SDS011;10985;54.182;7.890;2022-09-27T19:07:55;5.72;;;2.00;;
21647;SDS011;10985;54.182;7.890;2022-09-27T19:10:20;5.38;;;1.50;;
21647;SDS011;10985;54.182;7.890;2022-09-27T19:12:46;11.27;;;3.90;;
21647;SDS011;10985;54.182;7.890;2022-09-27T19:15:11;22.33;;;5.43;;
21647;SDS011;10985;54.182;7.890;2022-09-27T19:17:37;10.80;;;2.90;;
21647;SDS011;10985;54.182;7.890;2022-09-27T19:20:03;8.55;;;2.72;;
21647;SDS011;10985;54.182;7.890;2022-09-27T19:22:31;13.00;;;3.28;;
21647;SDS011;10985;54.182;7.890;2022-09-27T19:24:57;9.75;;;3.33;;
21647;SDS011;10985;54.182;7.890;2022-09-27T19:27:22;6.70;;;2.72;;
21647;SDS011;10985;54.182;7.890;2022-09-27T19:29:48;6.35;;;2.80;;
21647;SDS011;10985;54.182;7.890;2022-09-27T19:32:13;4.88;;;2.20;;
21647;SDS011;10985;54.182;7.890;2022-09-27T19:34:39;7.60;;;2.42;;
21647;SDS011;10985;54.182;7.890;2022-09-27T19:37:04;14.38;;;2.20;;
21647;SDS011;10985;54.182;7.890;2022-09-27T19:39:30;40.00;;;4.22;;
21647;SDS011;10985;54.182;7.890;2022-09-27T19:41:55;10.98;;;1.85;;
21647;SDS011;10985;54.182;7.890;2022-09-27T19:44:21;13.52;;;2.90;;
21647;SDS011;10985;54.182;7.890;2022-09-27T19:46:46;20.98;;;3.10;;
21647;SDS011;10985;54.182;7.890;2022-09-27T19:49:12;17.90;;;4.90;;
21647;SDS011;10985;54.182;7.890;2022-09-27T19:51:38;15.07;;;3.00;;
21647;SDS011;10985;54.182;7.890;2022-09-27T19:54:03;9.32;;;4.80;;
21647;SDS011;10985;54.182;7.890;2022-09-27T19:56:29;10.27;;;3.33;;
21647;SDS011;10985;54.182;7.890;2022-09-27T19:58:54;7.70;;;2.53;;
21647;SDS011;10985;54.182;7.890;2022-09-27T20:01:21;4.68;;;2.40;;
21647;SDS011;10985;54.182;7.890;2022-09-27T20:03:49;5.93;;;2.00;;
21647;SDS011;10985;54.182;7.890;2022-09-27T20:06:18;5.47;;;2.28;;
21647;SDS011;10985;54.182;7.890;2022-09-27T20:08:44;7.13;;;1.98;;
21647;SDS011;10985;54.182;7.890;2022-09-27T20:11:12;3.53;;;2.50;;
21647;SDS011;10985;54.182;7.890;2022-09-27T20:13:39;6.68;;;3.45;;
21647;SDS011;10985;54.182;7.890;2022-09-27T20:18:47;6.20;;;2.50;;
21647;SDS011;10985;54.182;7.890;2022-09-27T20:21:15;5.63;;;2.47;;
21647;SDS011;10985;54.182;7.890;2022-09-27T20:23:41;8.13;;;2.92;;
21647;SDS011;10985;54.182;7.890;2022-09-27T20:26:08;3.03;;;2.70;;
21647;SDS011;10985;54.182;7.890;2022-09-27T20:28:39;5.97;;;2.80;;
21647;SDS011;10985;54.182;7.890;2022-09-27T20:31:05;3.65;;;3.03;;
21647;SDS011;10985;54.182;7.890;2022-09-27T20:33:31;3.95;;;1.95;;
21647;SDS011;10985;54.182;7.890;2022-09-27T20:36:27;11.00;;;2.92;;
21647;SDS011;10985;54.182;7.890;2022-09-27T20:38:54;5.60;;;1.88;;
21647;SDS011;10985;54.182;7.890;2022-09-27T20:41:27;9.57;;;2.35;;
21647;SDS011;10985;54.182;7.890;2022-09-27T20:43:55;8.20;;;2.20;;
21647;SDS011;10985;54.182;7.890;2022-09-27T20:46:24;11.35;;;2.00;;
21647;SDS011;10985;54.182;7.890;2022-09-27T20:48:54;8.48;;;1.90;;
21647;SDS011;10985;54.182;7.890;2022-09-27T20:51:21;7.43;;;1.73;;
21647;SDS011;10985;54.182;7.890;2022-09-27T20:53:47;5.43;;;1.90;;
21647;SDS011;10985;54.182;7.890;2022-09-27T20:56:16;5.68;;;1.90;;
21647;SDS011;10985;54.182;7.890;2022-09-27T20:58:50;5.47;;;1.92;;
21647;SDS011;10985;54.182;7.890;2022-09-27T21:01:17;4.50;;;1.80;;
21647;SDS011;10985;54.182;7.890;2022-09-27T21:03:43;1.50;;;1.40;;
21647;SDS011;10985;54.182;7.890;2022-09-27T21:06:09;1.80;;;1.70;;
21647;SDS011;10985;54.182;7.890;2022-09-27T21:08:37;1.98;;;1.85;;
21647;SDS011;10985;54.182;7.890;2022-09-27T21:11:10;2.90;;;2.65;;
21647;SDS011;10985;54.182;7.890;2022-09-27T21:13:37;1.88;;;1.73;;
21647;SDS011;10985;54.182;7.890;2022-09-27T21:16:04;3.10;;;2.10;;
21647;SDS011;10985;54.182;7.890;2022-09-27T21:18:31;5.97;;;3.03;;
21647;SDS011;10985;54.182;7.890;2022-09-27T21:21:02;3.30;;;2.25;;
21647;SDS011;10985;54.182;7.890;2022-09-27T21:23:29;3.40;;;3.08;;
21647;SDS011;10985;54.182;7.890;2022-09-27T21:25:59;7.40;;;2.97;;
21647;SDS011;10985;54.182;7.890;2022-09-27T21:28:29;3.45;;;2.60;;
21647;SDS011;10985;54.182;7.890;2022-09-27T21:31:03;5.97;;;3.40;;
21647;SDS011;10985;54.182;7.890;2022-09-27T21:33:30;6.10;;;2.90;;
21647;SDS011;10985;54.182;7.890;2022-09-27T21:35:55;7.43;;;3.00;;
21647;SDS011;10985;54.182;7.890;2022-09-27T21:38:21;5.47;;;2.92;;
21647;SDS011;10985;54.182;7.890;2022-09-27T21:41:00;4.78;;;2.45;;
21647;SDS011;10985;54.182;7.890;2022-09-27T21:43:29;8.80;;;3.20;;
21647;SDS011;10985;54.182;7.890;2022-09-27T21:45:59;9.63;;;3.78;;
21647;SDS011;10985;54.182;7.890;2022-09-27T21:48:27;4.90;;;3.78;;
21647;SDS011;10985;54.182;7.890;2022-09-27T21:50:53;6.85;;;3.00;;
21647;SDS011;10985;54.182;7.890;2022-09-27T21:53:24;7.32;;;3.45;;
21647;SDS011;10985;54.182;7.890;2022-09-27T21:55:53;6.45;;;3.05;;
21647;SDS011;10985;54.182;7.890;2022-09-27T21:58:20;7.40;;;3.15;;
21647;SDS011;10985;54.182;7.890;2022-09-27T22:00:45;6.97;;;3.17;;
21647;SDS011;10985;54.182;7.890;2022-09-27T22:03:10;4.95;;;3.28;;
21647;SDS011;10985;54.182;7.890;2022-09-27T22:05:43;4.18;;;2.83;;
21647;SDS011;10985;54.182;7.890;2022-09-27T22:08:09;2.85;;;2.30;;
21647;SDS011;10985;54.182;7.890;2022-09-27T22:10:34;3.40;;;2.40;;
21647;SDS011;10985;54.182;7.890;2022-09-27T22:13:00;5.65;;;1.73;;
21647;SDS011;10985;54.182;7.890;2022-09-27T22:15:25;2.20;;;2.00;;
21647;SDS011;10985;54.182;7.890;2022-09-27T22:17:51;4.05;;;2.10;;
21647;SDS011;10985;54.182;7.890;2022-09-27T22:20:16;4.70;;;2.10;;
21647;SDS011;10985;54.182;7.890;2022-09-27T22:22:42;5.10;;;2.40;;
21647;SDS011;10985;54.182;7.890;2022-09-27T22:25:07;2.58;;;1.70;;
21647;SDS011;10985;54.182;7.890;2022-09-27T22:27:33;3.33;;;1.83;;
21647;SDS011;10985;54.182;7.890;2022-09-27T22:29:58;2.35;;;1.75;;
21647;SDS011;10985;54.182;7.890;2022-09-27T22:32:24;1.70;;;1.60;;
21647;SDS011;10985;54.182;7.890;2022-09-27T22:34:49;7.65;;;1.88;;
21647;SDS011;10985;54.182;7.890;2022-09-27T22:37:17;4.05;;;1.95;;
21647;SDS011;10985;54.182;7.890;2022-09-27T22:39:42;3.35;;;1.80;;
21647;SDS011;10985;54.182;7.890;2022-09-27T22:42:08;5.45;;;1.85;;
21647;SDS011;10985;54.182;7.890;2022-09-27T22:44:33;5.47;;;1.63;;
21647;SDS011;10985;54.182;7.890;2022-09-27T22:46:59;3.47;;;1.98;;
21647;SDS011;10985;54.182;7.890;2022-09-27T22:49:24;2.17;;;1.80;;
21647;SDS011;10985;54.182;7.890;2022-09-27T22:51:50;5.60;;;2.05;;
21647;SDS011;10985;54.182;7.890;2022-09-27T22:54:15;9.55;;;2.22;;
21647;SDS011;10985;54.182;7.890;2022-09-27T22:56:41;4.20;;;1.60;;
21647;SDS011;10985;54.182;7.890;2022-09-27T22:59:06;4.15;;;2.13;;
21647;SDS011;10985;54.182;7.890;2022-09-27T23:01:32;2.25;;;2.05;;
